Aérodrome :
LOGIN :

S'inscrire | Disclaimer

   EN    FR    IT 

 










Légende :    VFR   VFR Marginal   IFR   IFR Intensif   IFR Très Intensif
Visi : 
Plafond : 
>= 8 km
>= 3000ft
5 à 8 km
1000 à 3000 ft
1500m à 5 km
500 à 1000 ft
800 à 1500m
200 à 500 ft
< 800m
< 200 ft
Symboles :   Orages  Brouillard  Fortes neiges  Fortes précipitations  Vent > 20 kt
SIGMETs :   Divers  Orages  Givrage  Turbulence  Onde Orograph.  Cendres Volcan.






- Altitude de l'aérodrome : 751 ft
- Code IATA : ENC


LFSN - Nancy Essey

DERNIER METAR :
  • 180630Z AUTO VRB01KT 9999 BKN047 OVC054 02/00 Q1027

METARs EXPIRÉS :
  • 180600Z AUTO VRB01KT 9999 FEW011 SCT037 OVC048 02/01 Q1027
  • 180530Z AUTO VRB02KT 9999 BKN011 OVC049 02/01 Q1027
  • 180500Z AUTO VRB02KT 9999 FEW011 OVC050 02/01 Q1027
  • 180430Z AUTO 26004KT 9999 FEW045 OVC054 02/01 Q1026
  • 180400Z AUTO 23004KT 190V260 9999 SCT012 OVC050 02/01 Q1026

Prévision TAF périmée.



MET'MAP, la Météo Aéronautique d'un coup d'oeil ! - Copyright ORBIFLY Décembre 2007 - Disclaimer

ORBIFLY MET'MAP TEAM :

Programmation & Développement : Alexandra Zaïnal
Sur une idée originale de : Baudouin d'Aumeries
Assistance à la programmation : Marc-Olivier Méhu
Soutien technique & logistique : Manuel Goepfert

Contact : metmap@orbifly.com




SOURCES & CREDITS :

   NOAA